createdAt,value
2022-07-26T00:00:19.975Z,0.70
2022-07-26T00:03:04.920Z,0.80
2022-07-26T00:05:50.125Z,0.65
2022-07-26T00:08:35.537Z,0.70
2022-07-26T00:11:21.635Z,0.60
2022-07-26T00:14:08.648Z,1.02
2022-07-26T00:16:54.065Z,1.02
2022-07-26T00:19:39.292Z,0.60
2022-07-26T00:22:36.546Z,0.80
2022-07-26T00:25:23.371Z,1.20
2022-07-26T00:28:08.778Z,0.65
2022-07-26T00:30:54.926Z,0.80
2022-07-26T00:33:40.822Z,0.73
2022-07-26T00:36:27.527Z,1.02
2022-07-26T00:39:12.701Z,1.10
2022-07-26T00:41:57.910Z,0.88
2022-07-26T00:44:45.584Z,0.90
2022-07-26T00:47:30.665Z,0.85
2022-07-26T00:50:18.032Z,0.90
2022-07-26T00:53:03.552Z,0.90
2022-07-26T00:55:53.027Z,0.80
2022-07-26T00:58:37.985Z,0.70
2022-07-26T01:01:23.277Z,0.90
2022-07-26T01:04:09.112Z,1.00
2022-07-26T01:06:54.966Z,0.90
2022-07-26T01:09:40.388Z,0.80
2022-07-26T01:12:25.718Z,1.00
2022-07-26T01:15:13.249Z,0.88
2022-07-26T01:17:58.431Z,0.80
2022-07-26T01:20:44.751Z,1.00
2022-07-26T01:23:31.220Z,0.80
2022-07-26T01:26:17.147Z,0.95
2022-07-26T01:29:04.708Z,1.00
2022-07-26T01:31:50.379Z,1.20
2022-07-26T01:34:35.870Z,1.10
2022-07-26T01:37:21.037Z,1.55
2022-07-26T01:40:07.138Z,1.50
2022-07-26T01:42:52.333Z,1.00
2022-07-26T01:45:37.769Z,0.90
2022-07-26T01:48:23.277Z,0.90
2022-07-26T01:51:08.415Z,1.02
2022-07-26T01:53:53.844Z,0.95
2022-07-26T01:56:39.412Z,1.23
2022-07-26T01:59:24.592Z,1.20
2022-07-26T02:02:10.115Z,1.20
2022-07-26T02:05:01.855Z,1.05
2022-07-26T02:07:46.763Z,1.00
2022-07-26T02:10:50.378Z,1.40
2022-07-26T02:13:41.247Z,0.90
2022-07-26T02:16:26.819Z,0.88
2022-07-26T02:19:11.909Z,1.27
2022-07-26T02:21:57.476Z,1.33
2022-07-26T02:24:42.258Z,1.17
2022-07-26T02:27:27.360Z,1.10
2022-07-26T02:30:12.736Z,1.48
2022-07-26T02:32:57.757Z,1.33
2022-07-26T02:35:44.130Z,0.88
2022-07-26T02:38:29.029Z,1.17
2022-07-26T02:41:14.273Z,0.88
2022-07-26T02:43:59.545Z,1.00
2022-07-26T02:46:44.725Z,1.08
2022-07-26T02:49:30.033Z,1.10
2022-07-26T02:52:15.208Z,0.90
2022-07-26T02:55:00.413Z,1.42
2022-07-26T02:57:46.853Z,1.23
2022-07-26T03:00:31.959Z,1.15
2022-07-26T03:03:17.178Z,1.17
2022-07-26T03:06:02.466Z,1.05
2022-07-26T03:08:48.900Z,1.23
2022-07-26T03:11:34.101Z,1.60
2022-07-26T03:14:19.376Z,1.58
2022-07-26T03:17:04.627Z,1.42
2022-07-26T03:19:57.246Z,1.19
2022-07-26T03:22:42.596Z,1.05
2022-07-26T03:25:27.541Z,1.50
2022-07-26T03:28:18.963Z,1.30
2022-07-26T03:31:04.504Z,1.35
2022-07-26T03:33:49.761Z,1.38
2022-07-26T03:36:35.411Z,1.17
2022-07-26T03:39:20.557Z,1.00
2022-07-26T03:42:06.184Z,0.93
2022-07-26T03:44:51.125Z,1.40
2022-07-26T03:47:37.257Z,2.20
2022-07-26T03:50:22.251Z,1.80
2022-07-26T03:53:07.762Z,1.65
2022-07-26T03:56:11.515Z,1.65
2022-07-26T03:58:59.072Z,1.40
2022-07-26T04:01:45.683Z,1.17
2022-07-26T04:04:31.217Z,1.38
2022-07-26T04:07:16.810Z,1.13
2022-07-26T04:10:02.650Z,1.38
2022-07-26T04:12:48.750Z,1.27
2022-07-26T04:15:33.914Z,1.30
2022-07-26T04:18:19.866Z,1.20
2022-07-26T04:21:05.086Z,1.13
2022-07-26T04:23:51.526Z,1.30
2022-07-26T04:26:37.172Z,1.70
2022-07-26T04:29:22.341Z,1.58
2022-07-26T04:32:07.615Z,1.70
2022-07-26T04:34:53.252Z,1.45
2022-07-26T04:37:43.081Z,1.38
2022-07-26T04:40:28.490Z,1.35
2022-07-26T04:43:15.524Z,1.48
2022-07-26T04:46:01.865Z,1.35
2022-07-26T04:48:47.397Z,1.55
2022-07-26T04:51:32.622Z,1.52
2022-07-26T04:54:22.811Z,1.60
2022-07-26T04:57:08.044Z,1.63
2022-07-26T05:00:09.906Z,1.58
2022-07-26T05:03:00.733Z,1.70
2022-07-26T05:05:46.230Z,1.77
2022-07-26T05:08:31.389Z,2.30
2022-07-26T05:11:16.765Z,2.17
2022-07-26T05:14:02.052Z,2.92
2022-07-26T05:16:47.705Z,3.00
2022-07-26T05:19:33.784Z,2.95
2022-07-26T05:22:19.182Z,2.80
2022-07-26T05:25:06.354Z,3.17
2022-07-26T05:27:51.810Z,3.22
2022-07-26T05:30:36.825Z,2.85
2022-07-26T05:33:22.081Z,3.33
2022-07-26T05:36:07.339Z,3.55
2022-07-26T05:38:52.397Z,3.47
2022-07-26T05:41:37.654Z,3.20
2022-07-26T05:44:24.552Z,3.83
2022-07-26T05:47:11.710Z,3.90
2022-07-26T05:49:57.039Z,3.50
2022-07-26T05:52:42.252Z,3.33
2022-07-26T05:55:27.514Z,3.40
2022-07-26T05:58:12.808Z,3.40
2022-07-26T06:00:58.010Z,3.50
2022-07-26T06:03:43.518Z,3.78
2022-07-26T06:06:28.603Z,3.30
2022-07-26T06:09:13.824Z,3.28
2022-07-26T06:11:59.553Z,3.40
2022-07-26T06:14:45.074Z,3.40
2022-07-26T06:17:30.548Z,3.17
2022-07-26T06:20:15.923Z,3.80
2022-07-26T06:23:01.127Z,3.50
2022-07-26T06:25:46.495Z,3.38
2022-07-26T06:28:31.850Z,3.55
2022-07-26T06:31:20.538Z,3.50
2022-07-26T06:34:06.263Z,3.47
2022-07-26T06:36:55.492Z,3.55
2022-07-26T06:39:41.255Z,4.07
2022-07-26T06:42:26.524Z,4.05
2022-07-26T06:45:11.690Z,3.90
2022-07-26T06:47:57.092Z,3.67
2022-07-26T06:50:42.394Z,3.50
2022-07-26T06:53:27.666Z,3.45
2022-07-26T06:56:14.861Z,3.47
2022-07-26T06:59:00.079Z,3.15
2022-07-26T07:01:58.775Z,3.50
2022-07-26T07:07:30.571Z,3.00
2022-07-26T07:10:19.271Z,3.30
2022-07-26T07:13:08.192Z,3.10
2022-07-26T07:15:53.739Z,2.47
2022-07-26T07:18:39.734Z,2.35
2022-07-26T07:21:25.187Z,2.88
2022-07-26T07:24:10.472Z,2.83
2022-07-26T07:26:56.210Z,2.20
2022-07-26T07:29:43.198Z,2.58
2022-07-26T07:32:28.850Z,2.63
2022-07-26T07:35:14.067Z,2.03
2022-07-26T07:37:59.249Z,2.70
2022-07-26T07:40:44.473Z,2.78
2022-07-26T07:43:29.533Z,2.40
2022-07-26T07:46:14.963Z,2.30
2022-07-26T07:49:00.452Z,2.65
2022-07-26T07:51:45.697Z,1.83
2022-07-26T07:54:31.115Z,2.35
2022-07-26T07:57:17.412Z,1.92
2022-07-26T08:00:05.565Z,2.25
2022-07-26T08:02:52.922Z,2.22
2022-07-26T08:05:40.552Z,2.08
2022-07-26T08:08:26.124Z,2.42
2022-07-26T08:11:12.774Z,2.10
2022-07-26T08:13:57.741Z,1.92
2022-07-26T08:16:44.645Z,2.40
2022-07-26T08:19:40.800Z,1.85
2022-07-26T08:22:27.553Z,5.35
2022-07-26T08:25:12.891Z,3.20
2022-07-26T08:28:03.533Z,3.25
2022-07-26T08:30:49.271Z,2.13
2022-07-26T08:33:34.287Z,2.50
2022-07-26T08:36:19.534Z,2.63
2022-07-26T08:39:05.170Z,2.80
2022-07-26T08:41:50.786Z,2.80
2022-07-26T08:44:36.226Z,4.20
2022-07-26T08:47:36.256Z,4.35
2022-07-26T08:50:24.825Z,3.97
2022-07-26T08:53:11.991Z,4.53
2022-07-26T08:56:06.910Z,4.20
2022-07-26T08:58:52.484Z,4.00
2022-07-26T09:01:53.901Z,3.97
2022-07-26T09:04:45.145Z,3.80
2022-07-26T09:07:33.782Z,3.10
2022-07-26T09:10:19.121Z,3.28
2022-07-26T09:13:04.433Z,4.18
2022-07-26T09:16:09.128Z,4.13
2022-07-26T09:18:55.834Z,3.90
2022-07-26T09:21:41.161Z,3.63
2022-07-26T09:24:37.103Z,3.88
2022-07-26T09:27:25.245Z,3.80
2022-07-26T09:30:13.717Z,3.97
2022-07-26T09:33:06.219Z,3.53
2022-07-26T09:36:21.619Z,3.33
2022-07-26T09:39:06.895Z,3.30
2022-07-26T09:42:17.519Z,1.65
2022-07-26T09:44:58.612Z,2.25
2022-07-26T09:47:43.706Z,2.63
2022-07-26T09:50:31.585Z,2.28
2022-07-26T09:53:16.549Z,3.55
2022-07-26T09:56:01.834Z,3.40
2022-07-26T09:58:47.764Z,3.80
2022-07-26T10:01:33.134Z,4.25
2022-07-26T10:04:19.381Z,3.42
2022-07-26T10:07:04.795Z,3.83
2022-07-26T10:09:59.290Z,4.05
2022-07-26T10:12:46.756Z,4.15
2022-07-26T10:15:44.313Z,4.20
2022-07-26T10:18:39.061Z,3.85
2022-07-26T10:21:32.094Z,4.57
2022-07-26T10:24:26.791Z,3.40
2022-07-26T10:27:37.887Z,3.10
2022-07-26T10:30:28.859Z,3.90
2022-07-26T10:33:23.007Z,3.28
2022-07-26T10:36:22.841Z,3.63
2022-07-26T10:42:03.195Z,3.97
2022-07-26T10:44:49.295Z,4.10
2022-07-26T10:47:35.534Z,4.40
2022-07-26T10:50:32.543Z,4.75
2022-07-26T10:53:23.577Z,4.30
2022-07-26T10:56:08.648Z,4.25
2022-07-26T10:58:53.966Z,4.60
2022-07-26T11:01:42.353Z,3.95
2022-07-26T11:04:27.657Z,3.97
2022-07-26T11:07:13.288Z,3.95
2022-07-26T11:09:59.658Z,4.13
2022-07-26T11:12:44.902Z,3.95
2022-07-26T11:15:30.589Z,4.15
2022-07-26T11:18:27.835Z,4.10
2022-07-26T11:21:15.717Z,4.13
2022-07-26T11:24:02.884Z,4.20
2022-07-26T11:26:48.408Z,3.90
2022-07-26T11:29:38.666Z,3.78
2022-07-26T11:32:26.320Z,3.70
2022-07-26T11:35:11.333Z,3.83
2022-07-26T11:38:09.214Z,2.67
2022-07-26T11:40:56.951Z,2.75
2022-07-26T11:43:42.638Z,3.50
2022-07-26T11:46:40.194Z,3.05
2022-07-26T11:52:36.439Z,3.30
2022-07-26T11:55:30.202Z,3.40
2022-07-26T11:58:15.429Z,2.97
2022-07-26T12:01:00.494Z,2.97
2022-07-26T12:03:48.937Z,3.10
2022-07-26T12:06:38.581Z,2.95
2022-07-26T12:09:34.234Z,3.30
2022-07-26T12:12:31.723Z,3.10
2022-07-26T12:15:16.680Z,3.15
2022-07-26T12:18:02.139Z,2.80
2022-07-26T12:21:04.939Z,3.33
2022-07-26T12:23:53.072Z,3.30
2022-07-26T12:26:38.699Z,3.10
2022-07-26T12:29:36.303Z,2.83
2022-07-26T12:32:32.943Z,3.35
2022-07-26T12:35:27.836Z,3.17
2022-07-26T12:38:12.741Z,2.90
2022-07-26T12:40:57.766Z,3.15
2022-07-26T12:43:43.001Z,3.28
2022-07-26T12:46:35.535Z,3.20
2022-07-26T12:49:21.109Z,2.80
2022-07-26T12:52:06.825Z,2.97
2022-07-26T12:54:53.375Z,2.70
2022-07-26T12:57:38.467Z,2.75
2022-07-26T13:00:31.483Z,2.90
2022-07-26T13:03:16.716Z,2.50
2022-07-26T13:06:03.315Z,2.63
2022-07-26T13:08:49.158Z,2.65
2022-07-26T13:11:34.255Z,3.20
2022-07-26T13:14:19.576Z,2.70
2022-07-26T13:17:07.067Z,2.85
2022-07-26T13:19:52.034Z,2.72
2022-07-26T13:22:37.241Z,2.38
2022-07-26T13:25:22.477Z,2.33
2022-07-26T13:28:11.253Z,2.22
2022-07-26T13:30:56.681Z,2.22
2022-07-26T13:33:42.394Z,2.50
2022-07-26T13:36:28.206Z,2.50
2022-07-26T13:39:13.279Z,2.65
2022-07-26T13:41:59.667Z,2.65
2022-07-26T13:44:45.035Z,2.65
2022-07-26T13:47:30.245Z,2.30
2022-07-26T13:50:15.642Z,2.72
2022-07-26T13:53:01.071Z,2.72
2022-07-26T13:55:46.194Z,2.47
2022-07-26T13:58:32.533Z,2.67
2022-07-26T14:01:17.940Z,2.63
2022-07-26T14:04:04.586Z,2.47
2022-07-26T14:06:50.334Z,2.58
2022-07-26T14:09:35.539Z,2.00
2022-07-26T14:12:20.975Z,2.60
2022-07-26T14:15:13.753Z,2.63
2022-07-26T14:18:02.396Z,3.45
2022-07-26T14:20:47.656Z,3.22
2022-07-26T14:23:32.735Z,3.83
2022-07-26T14:26:18.638Z,3.45
2022-07-26T14:29:03.943Z,3.60
2022-07-26T14:31:49.064Z,3.80
2022-07-26T14:34:34.313Z,2.67
2022-07-26T14:37:43.230Z,2.83
2022-07-26T14:40:24.643Z,2.67
2022-07-26T14:43:10.069Z,1.85
2022-07-26T14:45:55.514Z,2.00
2022-07-26T14:48:54.081Z,1.83
2022-07-26T14:51:39.966Z,2.35
2022-07-26T14:54:25.156Z,1.98
2022-07-26T14:57:10.418Z,2.53
2022-07-26T14:59:55.972Z,2.40
2022-07-26T15:02:43.085Z,2.60
2022-07-26T15:05:28.753Z,1.88
2022-07-26T15:08:13.738Z,1.80
2022-07-26T15:10:59.134Z,2.45
2022-07-26T15:13:44.734Z,2.10
2022-07-26T15:16:32.173Z,1.95
2022-07-26T15:19:19.948Z,1.85
2022-07-26T15:22:09.463Z,2.00
2022-07-26T15:24:54.475Z,2.08
2022-07-26T15:27:40.131Z,2.00
2022-07-26T15:30:25.642Z,2.30
2022-07-26T15:33:11.890Z,1.90
2022-07-26T15:35:57.242Z,2.28
2022-07-26T15:38:45.173Z,2.35
2022-07-26T15:41:30.399Z,1.92
2022-07-26T15:44:17.519Z,1.90
2022-07-26T15:47:02.482Z,2.22
2022-07-26T15:49:49.066Z,2.20
2022-07-26T15:52:37.395Z,2.60
2022-07-26T15:55:22.731Z,1.77
2022-07-26T15:58:07.883Z,1.83
2022-07-26T16:00:53.132Z,1.92
2022-07-26T16:03:38.969Z,1.77
2022-07-26T16:06:24.565Z,2.38
2022-07-26T16:09:19.153Z,1.90
2022-07-26T16:12:06.316Z,1.40
2022-07-26T16:14:51.746Z,2.00
2022-07-26T16:17:36.733Z,1.83
2022-07-26T16:20:22.186Z,1.77
2022-07-26T16:23:07.213Z,1.50
2022-07-26T16:25:52.602Z,1.80
2022-07-26T16:28:37.721Z,2.10
2022-07-26T16:31:23.045Z,1.73
2022-07-26T16:34:09.368Z,2.00
2022-07-26T16:36:54.718Z,2.10
2022-07-26T16:39:40.027Z,1.67
2022-07-26T16:42:25.382Z,1.60
2022-07-26T16:45:11.063Z,1.65
2022-07-26T16:47:59.888Z,1.40
2022-07-26T16:50:45.105Z,1.58
2022-07-26T16:53:30.632Z,1.48
2022-07-26T16:56:15.728Z,1.70
2022-07-26T16:59:01.265Z,1.83
2022-07-26T17:01:46.354Z,1.83
2022-07-26T17:04:31.565Z,1.92
2022-07-26T17:07:25.783Z,1.98
2022-07-26T17:10:11.505Z,1.70
2022-07-26T17:12:56.883Z,1.90
2022-07-26T17:15:42.186Z,1.80
2022-07-26T17:18:27.406Z,1.92
2022-07-26T17:21:12.722Z,1.73
2022-07-26T17:24:00.516Z,1.85
2022-07-26T17:26:47.686Z,1.60
2022-07-26T17:29:33.020Z,2.10
2022-07-26T17:32:18.721Z,1.77
2022-07-26T17:35:05.685Z,2.33
2022-07-26T17:37:55.388Z,2.03
2022-07-26T17:40:41.467Z,2.15
2022-07-26T17:43:36.458Z,2.00
2022-07-26T17:46:22.549Z,1.85
2022-07-26T17:49:08.014Z,1.95
2022-07-26T17:51:57.273Z,1.80
2022-07-26T17:54:42.244Z,1.95
2022-07-26T17:57:27.763Z,2.10
2022-07-26T18:00:13.607Z,1.83
2022-07-26T18:02:58.957Z,1.70
2022-07-26T18:05:44.402Z,2.58
2022-07-26T18:08:30.009Z,1.85
2022-07-26T18:11:14.935Z,2.00
2022-07-26T18:14:00.286Z,1.83
2022-07-26T18:16:48.249Z,2.22
2022-07-26T18:19:39.873Z,1.90
2022-07-26T18:22:25.386Z,1.90
2022-07-26T18:25:10.781Z,2.00
2022-07-26T18:27:56.066Z,1.80
2022-07-26T18:30:41.359Z,1.95
2022-07-26T18:33:26.752Z,2.53
2022-07-26T18:36:11.879Z,1.95
2022-07-26T18:38:57.201Z,2.10
2022-07-26T18:41:42.230Z,2.10
2022-07-26T18:44:27.363Z,2.00
2022-07-26T18:47:12.565Z,2.10
2022-07-26T18:49:57.884Z,2.00
2022-07-26T18:52:45.545Z,1.85
2022-07-26T18:55:30.504Z,1.90
2022-07-26T18:58:15.711Z,2.13
2022-07-26T19:01:00.956Z,1.85
2022-07-26T19:03:46.308Z,1.98
2022-07-26T19:06:31.352Z,1.60
2022-07-26T19:09:16.682Z,1.70
2022-07-26T19:12:02.085Z,1.70
2022-07-26T19:14:47.218Z,1.80
2022-07-26T19:17:33.631Z,1.80
2022-07-26T19:20:18.673Z,1.80
2022-07-26T19:23:04.811Z,1.83
2022-07-26T19:25:50.162Z,1.70
2022-07-26T19:28:35.732Z,1.55
2022-07-26T19:31:21.651Z,1.85
2022-07-26T19:34:07.059Z,1.83
2022-07-26T19:36:52.966Z,1.65
2022-07-26T19:39:38.216Z,1.75
2022-07-26T19:42:23.331Z,1.90
2022-07-26T19:45:09.582Z,1.98
2022-07-26T19:47:55.212Z,2.13
2022-07-26T19:50:40.671Z,1.50
2022-07-26T19:53:25.973Z,1.98
2022-07-26T19:56:11.131Z,2.05
2022-07-26T19:58:57.648Z,1.60
2022-07-26T20:01:42.918Z,1.63
2022-07-26T20:04:28.337Z,2.15
2022-07-26T20:07:19.328Z,2.63
2022-07-26T20:10:05.762Z,2.38
2022-07-26T20:12:50.884Z,2.05
2022-07-26T20:15:36.331Z,1.80
2022-07-26T20:18:24.748Z,2.00
2022-07-26T20:21:09.679Z,2.10
2022-07-26T20:23:55.040Z,2.03
2022-07-26T20:26:40.399Z,3.20
2022-07-26T20:29:25.886Z,2.80
2022-07-26T20:32:11.157Z,3.42
2022-07-26T20:34:56.434Z,3.67
2022-07-26T20:37:43.074Z,3.70
2022-07-26T20:40:28.848Z,4.00
2022-07-26T20:43:13.965Z,3.70
2022-07-26T20:45:59.927Z,3.83
2022-07-26T20:48:45.367Z,3.85
2022-07-26T20:51:30.804Z,3.55
2022-07-26T20:54:16.091Z,4.00
2022-07-26T20:57:04.263Z,3.67
2022-07-26T20:59:49.850Z,3.97
2022-07-26T21:02:35.103Z,4.10
2022-07-26T21:05:20.632Z,4.25
2022-07-26T21:08:05.804Z,4.45
2022-07-26T21:10:50.972Z,4.85
2022-07-26T21:13:36.609Z,4.45
2022-07-26T21:16:21.566Z,4.50
2022-07-26T21:19:06.934Z,4.35
2022-07-26T21:21:54.592Z,3.95
2022-07-26T21:24:39.621Z,4.13
2022-07-26T21:27:24.965Z,4.03
2022-07-26T21:30:10.614Z,3.25
2022-07-26T21:32:55.699Z,3.72
2022-07-26T21:35:41.128Z,3.60
2022-07-26T21:38:27.777Z,3.72
2022-07-26T21:41:13.668Z,2.72
2022-07-26T21:43:58.843Z,3.05
2022-07-26T21:46:44.081Z,2.67
2022-07-26T21:49:29.492Z,3.60
2022-07-26T21:52:14.840Z,3.50
2022-07-26T21:55:00.097Z,3.63
2022-07-26T21:57:45.452Z,3.30
2022-07-26T22:00:30.878Z,3.15
2022-07-26T22:03:16.143Z,3.28
2022-07-26T22:06:01.523Z,3.47
2022-07-26T22:08:46.781Z,3.40
2022-07-26T22:11:32.118Z,3.28
2022-07-26T22:14:17.601Z,3.22
2022-07-26T22:17:02.748Z,3.13
2022-07-26T22:19:48.099Z,2.30
2022-07-26T22:22:34.700Z,2.22
2022-07-26T22:25:19.734Z,2.78
2022-07-26T22:28:06.611Z,2.10
2022-07-26T22:30:51.784Z,2.35
2022-07-26T22:33:37.205Z,2.20
2022-07-26T22:36:22.477Z,2.03
2022-07-26T22:39:09.123Z,2.33
2022-07-26T22:42:14.157Z,2.10
2022-07-26T22:44:59.383Z,2.50
2022-07-26T22:47:55.730Z,2.25
2022-07-26T22:50:41.259Z,2.08
2022-07-26T22:53:26.701Z,2.22
2022-07-26T22:56:11.853Z,1.98
2022-07-26T22:59:04.895Z,1.90
2022-07-26T23:01:49.896Z,2.70
2022-07-26T23:04:35.406Z,2.00
2022-07-26T23:07:20.550Z,2.05
2022-07-26T23:10:08.877Z,1.80
2022-07-26T23:12:55.274Z,2.45
2022-07-26T23:15:40.420Z,2.15
2022-07-26T23:18:25.715Z,2.00
2022-07-26T23:21:10.917Z,1.92
2022-07-26T23:23:56.428Z,1.73
2022-07-26T23:26:41.393Z,2.05
2022-07-26T23:29:26.527Z,2.20
2022-07-26T23:32:11.966Z,2.50
2022-07-26T23:34:57.132Z,2.50
2022-07-26T23:37:42.408Z,2.05
2022-07-26T23:40:27.625Z,2.20
2022-07-26T23:43:12.833Z,2.60
2022-07-26T23:45:58.143Z,2.38
2022-07-26T23:48:43.422Z,2.33
2022-07-26T23:51:28.785Z,1.88
2022-07-26T23:54:14.137Z,2.35
2022-07-26T23:56:59.536Z,2.42
2022-07-26T23:59:45.081Z,2.50
